Terminal Aerodrome Forecast
Issued by NWS

Current Version | Previous Version | Text Only | Print | Product List | Glossary Off
Versions: 1 2 3 4 5 6 7 8 9 10 11 12 13 14 15 16 17 18 19 20 21 22 23 24 25 26 27 28 29 30 31 32

415
FTUS41 KPBZ 261720
TAFMGW
TAF
KMGW 261720Z 2618/2718 27005KT P6SM BKN040
     FM271000 00000KT 5SM BR BKN070
     FM271300 VRB03KT P6SM BKN040=

USA.gov is the U.S. government's official web portal to all federal, state and local government web resources and services.